Phoenix (PHX/KPHX)

Information

Location
Phoenix, AZ
Local Time
11:25 / 11:25 am
GMT Time
18:25 / 6:25 pm
Gates
No FAA reported delays
METAR KPHX 201751Z 13011G21KT 10SM FEW075 32/14 A2985 RMK AO2 SLP087 T03220139 10322 20222 58000
TAF KPHX 201720Z 2018/2124 17009KT P6SM SKC FM202000 23010KT P6SM SKC TEMPO 2020/2023 23011G16KT FM210800 11007KT P6SM SKC